Time;durP1;ratioP1;P1;durP2;ratioP2;P2;SDS_P1;SDS_P2;PMS_P1;PMS_P2;Temp;Humidity;BMP_temperature;BMP_pressure;BME280_temperature;BME280_humidity;BME280_pressure;Samples;Min_cycle;Max_cycle;Signal;HPM_P1;HPM_P2
2022/02/01 00:01:05;;;;;;;4.10;3.90;;;;;;;3.54;100.00;95903.00;5064953;28;20101;-62
2022/02/01 00:03:35;;;;;;;4.15;3.95;;;;;;;3.55;100.00;95899.44;5064371;28;20510;-62
2022/02/01 00:06:11;;;;;;;3.88;3.67;;;;;;;3.45;100.00;95892.41;5061438;28;20095;-61
2022/02/01 00:08:53;;;;;;;4.32;3.97;;;;;;;3.52;100.00;95899.66;5049551;28;20072;-62
2022/02/01 00:11:34;;;;;;;4.15;3.85;;;;;;;3.48;100.00;95900.84;5063421;28;20087;-59
2022/02/01 00:14:18;;;;;;;3.70;3.50;;;;;;;3.48;100.00;95895.63;5063079;28;20538;-62
2022/02/01 00:17:20;;;;;;;4.03;3.72;;;;;;;3.51;100.00;95892.78;5062578;28;20525;-58
2022/02/01 00:33:56;;;;;;;4.30;4.00;;;;;;;3.21;100.00;95882.06;5061707;28;20072;-60
2022/02/01 00:36:31;;;;;;;4.35;4.05;;;;;;;3.22;100.00;95886.31;5058258;28;20534;-60
2022/02/01 00:39:02;;;;;;;4.10;3.80;;;;;;;3.19;100.00;95899.56;5059880;28;20072;-61
2022/02/01 00:41:35;;;;;;;4.75;4.45;;;;;;;3.33;100.00;95902.78;5045520;28;20084;-62
2022/02/01 00:44:04;;;;;;;4.07;3.88;;;;;;;3.04;100.00;95923.19;5057314;28;20297;-61
2022/02/01 00:46:34;;;;;;;4.22;3.92;;;;;;;2.99;100.00;95920.06;5061158;28;20083;-61
2022/02/01 00:49:03;;;;;;;4.22;3.92;;;;;;;2.82;100.00;95907.44;5053852;28;20071;-57
2022/02/01 00:51:31;;;;;;;4.13;3.88;;;;;;;2.89;100.00;95915.63;5062976;28;20096;-60
2022/02/01 00:53:59;;;;;;;4.07;3.80;;;;;;;2.73;100.00;95916.75;5063243;28;20117;-57
2022/02/01 00:56:28;;;;;;;4.32;4.03;;;;;;;2.65;100.00;95931.25;5060587;28;20076;-58
2022/02/01 00:58:58;;;;;;;4.32;4.03;;;;;;;2.60;100.00;95935.00;5056992;28;20064;-59
2022/02/01 01:01:26;;;;;;;4.80;3.90;;;;;;;2.40;100.00;95925.19;5064944;28;20071;-60
2022/02/01 01:03:55;;;;;;;3.92;3.63;;;;;;;2.37;100.00;95918.44;5057413;28;20076;-59
2022/02/01 01:06:25;;;;;;;4.32;4.07;;;;;;;2.32;100.00;95932.69;5068453;28;20059;-58
2022/02/01 01:08:53;;;;;;;4.43;4.10;;;;;;;2.35;100.00;95930.72;5060618;28;20703;-56
2022/02/01 01:11:22;;;;;;;4.25;3.95;;;;;;;2.34;100.00;95933.41;5045727;28;20081;-59
2022/02/01 01:44:30;;;;;;;4.25;3.95;;;;;;;2.65;100.00;96009.34;5040616;28;20087;-61
2022/02/01 01:55:18;;;;;;;4.57;4.28;;;;;;;2.77;100.00;96022.34;5042803;28;20064;-59
2022/02/01 01:57:47;;;;;;;4.10;3.80;;;;;;;2.70;100.00;96026.31;5039996;28;20079;-61
2022/02/01 02:00:29;;;;;;;4.22;4.00;;;;;;;2.79;100.00;96030.88;5041570;28;20067;-60
2022/02/01 02:02:58;;;;;;;4.60;4.30;;;;;;;2.71;100.00;96033.16;5046551;28;20075;-60
2022/02/01 02:05:28;;;;;;;4.47;4.18;;;;;;;2.76;100.00;96027.66;5049667;28;20076;-61
2022/02/01 02:07:57;;;;;;;4.97;4.68;;;;;;;2.79;100.00;96030.06;5045745;28;20078;-61
2022/02/01 02:10:29;;;;;;;3.90;3.70;;;;;;;2.78;100.00;96038.78;5044302;28;20088;-60
2022/02/01 02:14:16;;;;;;;5.22;4.82;;;;;;;2.79;100.00;96043.91;5042028;28;20091;-61
2022/02/01 02:15:55;;;;;;;4.10;3.80;;;;;;;2.77;100.00;96042.34;5046716;28;20502;-60
2022/02/01 02:18:25;;;;;;;4.90;4.60;;;;;;;2.75;100.00;96047.66;5046210;28;20068;-62
2022/02/01 02:20:55;;;;;;;4.80;4.40;;;;;;;2.90;100.00;96042.31;5046649;28;20492;-58
2022/02/01 02:23:24;;;;;;;4.63;4.32;;;;;;;2.84;100.00;96031.38;5047883;28;20077;-59
2022/02/01 02:25:53;;;;;;;5.10;4.72;;;;;;;2.89;100.00;96040.63;5046169;28;20099;-61
2022/02/01 02:28:23;;;;;;;5.18;4.78;;;;;;;2.81;100.00;96044.59;5045515;28;20644;-59
2022/02/01 02:30:53;;;;;;;5.45;5.05;;;;;;;2.95;100.00;96028.00;5035747;28;20064;-60
2022/02/01 02:33:21;;;;;;;5.00;4.50;;;;;;;2.99;100.00;96036.44;5044987;28;20595;-58
2022/02/01 02:35:54;;;;;;;5.50;5.10;;;;;;;2.97;100.00;96009.69;5044624;28;20522;-58
2022/02/01 02:38:33;;;;;;;5.05;4.65;;;;;;;2.97;100.00;96039.16;5047274;28;20080;-60
2022/02/01 02:41:21;;;;;;;5.82;5.32;;;;;;;2.95;100.00;96033.22;5039604;28;20463;-61
2022/02/01 02:46:38;;;;;;;4.75;4.45;;;;;;;3.02;100.00;96051.84;5063160;28;20090;-59
2022/02/01 02:49:07;;;;;;;4.90;4.53;;;;;;;3.09;100.00;96061.72;5065206;28;20475;-60
2022/02/01 02:51:36;;;;;;;4.82;4.50;;;;;;;3.15;100.00;96068.28;5066380;28;20079;-63
2022/02/01 02:54:07;;;;;;;6.35;5.80;;;;;;;3.13;100.00;96075.38;5066208;28;20071;-61
2022/02/01 02:56:36;;;;;;;6.28;5.70;;;;;;;3.18;100.00;96080.28;5059566;28;20076;-58
2022/02/01 02:59:05;;;;;;;5.57;5.07;;;;;;;3.06;100.00;96087.16;5038179;28;20554;-62
2022/02/01 03:01:33;;;;;;;5.68;5.15;;;;;;;3.21;100.00;96090.47;5044350;28;20569;-61
2022/02/01 03:04:05;;;;;;;5.35;4.95;;;;;;;3.16;100.00;96100.38;5045142;28;20041;-60
2022/02/01 03:06:33;;;;;;;5.97;5.47;;;;;;;3.18;100.00;96109.75;5044883;28;20075;-54
2022/02/01 03:09:02;;;;;;;6.03;5.60;;;;;;;3.26;100.00;96117.84;5043291;28;20077;-61
2022/02/01 03:11:32;;;;;;;5.55;5.05;;;;;;;3.21;100.00;96124.34;5042630;28;20077;-60
2022/02/01 03:14:03;;;;;;;7.03;6.43;;;;;;;3.29;100.00;96135.06;5041346;28;21386;-60
2022/02/01 03:16:51;;;;;;;5.55;5.00;;;;;;;3.18;100.00;96141.03;5041032;28;20415;-61
2022/02/01 03:19:49;;;;;;;5.05;4.65;;;;;;;3.21;100.00;96153.00;5042416;28;20060;-61
2022/02/01 03:22:18;;;;;;;5.28;4.88;;;;;;;3.06;100.00;96162.69;5041704;28;20640;-59
2022/02/01 03:24:48;;;;;;;5.63;5.22;;;;;;;2.89;100.00;96158.69;5056367;28;20067;-59
2022/02/01 03:27:17;;;;;;;5.85;5.32;;;;;;;3.01;100.00;96172.63;5064484;28;20064;-61
2022/02/01 03:29:46;;;;;;;6.00;5.50;;;;;;;2.74;100.00;96181.38;5066681;28;20072;-58
2022/02/01 03:32:16;;;;;;;5.40;5.00;;;;;;;2.55;100.00;96188.75;5046305;28;20073;-60
2022/02/01 03:34:44;;;;;;;6.28;5.70;;;;;;;2.55;100.00;96196.56;5044788;28;20506;-56
2022/02/01 03:37:13;;;;;;;6.45;5.63;;;;;;;2.56;100.00;96186.03;5041957;28;20072;-61
2022/02/01 03:39:42;;;;;;;5.50;5.10;;;;;;;2.59;100.00;96187.63;5039776;28;20069;-60
2022/02/01 03:42:11;;;;;;;6.70;5.55;;;;;;;2.67;100.00;96179.28;5049104;28;20076;-58
2022/02/01 03:44:41;;;;;;;6.95;6.32;;;;;;;2.66;100.00;96211.47;5064693;28;20802;-59
2022/02/01 03:47:10;;;;;;;6.95;5.75;;;;;;;2.79;100.00;96220.13;5066706;28;20080;-59
2022/02/01 03:49:40;;;;;;;5.45;5.05;;;;;;;2.73;100.00;96215.31;5065005;28;20563;-60
2022/02/01 03:52:09;;;;;;;;;;;;;;;2.78;100.00;96214.06;5063508;28;20056;-56
2022/02/01 03:54:39;;;;;;;5.72;5.22;;;;;;;2.90;100.00;96219.41;5060156;28;19962;-58
2022/02/01 03:57:10;;;;;;;5.57;5.13;;;;;;;2.85;100.00;96236.16;5064787;28;20061;-60
2022/02/01 03:59:38;;;;;;;;;;;;;;;2.98;100.00;96254.41;5062717;28;20087;-60
2022/02/01 04:02:07;;;;;;;5.68;5.18;;;;;;;2.81;100.00;96270.31;5066187;28;19975;-61
2022/02/01 04:04:36;;;;;;;6.40;5.43;;;;;;;2.83;100.00;96276.25;5061406;28;20079;-61
2022/02/01 04:07:08;;;;;;;6.00;5.43;;;;;;;2.72;100.00;96281.31;5044090;28;20060;-59
2022/02/01 04:09:37;;;;;;;6.68;6.07;;;;;;;2.76;100.00;96282.81;5044505;28;20068;-59
2022/02/01 04:12:07;;;;;;;7.07;6.40;;;;;;;2.88;100.00;96274.19;5044676;28;20148;-57
2022/02/01 04:14:36;;;;;;;6.65;5.90;;;;;;;2.84;100.00;96277.94;5043863;28;20084;-56
2022/02/01 04:17:07;;;;;;;6.25;5.65;;;;;;;2.77;100.00;96276.66;5042872;28;20080;-60
2022/02/01 04:19:36;;;;;;;7.63;6.82;;;;;;;2.88;100.00;96271.56;5042983;28;20523;-58
2022/02/01 04:22:06;;;;;;;5.53;5.13;;;;;;;2.74;100.00;96292.47;5040122;28;20510;-60
2022/02/01 04:24:36;;;;;;;5.72;5.22;;;;;;;2.72;100.00;96284.78;5039430;28;20069;-60
2022/02/01 04:27:06;;;;;;;5.63;5.20;;;;;;;2.73;100.00;96301.25;5038442;28;20060;-59
2022/02/01 04:29:37;;;;;;;4.65;4.32;;;;;;;2.79;100.00;96313.88;5045071;28;20086;-55
2022/02/01 04:32:08;;;;;;;6.47;5.88;;;;;;;2.53;100.00;96318.16;5063371;28;21517;-58
2022/02/01 04:34:36;;;;;;;7.80;5.68;;;;;;;2.37;100.00;96302.66;5063694;28;21173;-60
2022/02/01 04:37:05;;;;;;;5.60;4.90;;;;;;;2.37;100.00;96302.66;5049374;28;20072;-59
2022/02/01 04:39:34;;;;;;;5.60;5.10;;;;;;;2.27;100.00;96299.84;5043403;28;20095;-55
2022/02/01 04:42:02;;;;;;;6.88;5.50;;;;;;;2.32;100.00;96304.75;5043378;28;20064;-59
2022/02/01 04:44:31;;;;;;;6.78;6.13;;;;;;;2.32;100.00;96305.56;5045726;28;20480;-58
2022/02/01 04:47:00;;;;;;;7.57;6.65;;;;;;;2.36;100.00;96304.44;5043341;28;20049;-58
2022/02/01 04:49:30;;;;;;;6.15;5.55;;;;;;;2.32;100.00;96304.75;5038270;28;20467;-58
2022/02/01 04:51:58;;;;;;;6.53;5.93;;;;;;;2.28;100.00;96305.88;5042039;28;20076;-56
2022/02/01 04:54:26;;;;;;;5.90;5.40;;;;;;;2.16;100.00;96301.44;5038197;28;20068;-59
2022/02/01 04:56:55;;;;;;;7.63;6.88;;;;;;;2.32;100.00;96304.75;5043356;28;20068;-60
2022/02/01 04:59:23;;;;;;;8.57;7.05;;;;;;;2.24;100.00;96317.41;5044396;28;20527;-59
2022/02/01 05:01:52;;;;;;;6.93;6.15;;;;;;;2.30;100.00;96328.25;5043268;28;20075;-59
2022/02/01 05:04:20;;;;;;;10.23;7.88;;;;;;;2.34;100.00;96334.09;5041704;28;20067;-59
2022/02/01 05:06:53;;;;;;;7.85;7.07;;;;;;;2.33;100.00;96329.81;5040054;28;20068;-58
2022/02/01 05:09:21;;;;;;;6.47;5.82;;;;;;;2.27;100.00;96338.88;5041747;28;20065;-52
2022/02/01 05:11:52;;;;;;;6.70;6.05;;;;;;;2.26;100.00;96349.34;5044128;28;20195;-57
2022/02/01 05:14:23;;;;;;;10.55;6.65;;;;;;;2.19;100.00;96359.31;5046495;28;20562;-59
2022/02/01 05:16:59;;;;;;;8.18;6.95;;;;;;;2.23;100.00;96365.16;5040023;28;20061;-58
2022/02/01 05:19:45;;;;;;;8.63;7.32;;;;;;;2.26;100.00;96376.22;5054108;28;20122;-58
2022/02/01 05:22:18;;;;;;;8.90;7.32;;;;;;;2.30;100.00;96375.06;5046352;28;20071;-54
2022/02/01 05:24:49;;;;;;;10.23;6.47;;;;;;;2.22;100.00;96374.72;5039618;28;20075;-58
2022/02/01 05:27:17;;;;;;;8.45;6.32;;;;;;;2.22;100.00;96386.91;5043379;28;20079;-60
2022/02/01 05:29:46;;;;;;;9.63;7.43;;;;;;;2.24;100.00;96390.25;5039060;28;20081;-61
2022/02/01 05:34:59;;;;;;;9.85;7.57;;;;;;;2.23;100.00;96397.19;5045980;28;20460;-56
2022/02/01 05:37:29;;;;;;;8.65;7.38;;;;;;;2.16;100.00;96408.09;5046936;28;20065;-59
2022/02/01 05:39:58;;;;;;;10.05;7.60;;;;;;;2.19;100.00;96415.72;5054919;28;20064;-61
2022/02/01 05:42:38;;;;;;;9.57;6.50;;;;;;;2.09;100.00;96410.22;5067701;28;20064;-58
2022/02/01 05:45:07;;;;;;;7.28;6.55;;;;;;;2.12;100.00;96412.66;5064804;28;20482;-58
2022/02/01 05:47:36;;;;;;;7.00;5.63;;;;;;;2.12;100.00;96421.28;5067024;28;20088;-59
2022/02/01 05:50:04;;;;;;;6.45;5.85;;;;;;;2.09;100.00;96426.66;5071509;28;20080;-56
2022/02/01 05:52:34;;;;;;;8.02;6.53;;;;;;;2.10;100.00;96428.34;5041998;28;20081;-60
2022/02/01 05:55:03;;;;;;;9.00;6.93;;;;;;;2.14;100.00;96442.00;5045432;28;20203;-57
2022/02/01 05:57:32;;;;;;;7.55;6.15;;;;;;;2.14;100.00;96444.63;5044890;28;20069;-59
2022/02/01 06:00:01;;;;;;;9.13;7.63;;;;;;;2.17;100.00;96454.84;5048914;28;20190;-56
2022/02/01 06:02:29;;;;;;;7.00;6.30;;;;;;;2.20;100.00;96462.44;5046738;28;20490;-59
2022/02/01 06:04:58;;;;;;;6.93;6.13;;;;;;;2.11;100.00;96458.63;5046166;28;20076;-59
2022/02/01 06:07:26;;;;;;;6.80;5.80;;;;;;;2.13;100.00;96463.72;5044438;28;20080;-58
2022/02/01 06:09:56;;;;;;;10.50;7.70;;;;;;;2.23;100.00;96469.22;5047862;28;20083;-59
2022/02/01 06:12:24;;;;;;;8.40;7.22;;;;;;;2.13;100.00;96464.59;5067275;28;20451;-58
2022/02/01 06:14:53;;;;;;;9.45;6.85;;;;;;;2.21;100.00;96473.69;5065625;28;20094;-59
2022/02/01 06:17:21;;;;;;;9.93;6.72;;;;;;;2.19;100.00;96481.56;5066628;28;20076;-56
2022/02/01 06:19:50;;;;;;;7.45;6.03;;;;;;;2.18;100.00;96468.69;5061594;28;20514;-58
2022/02/01 06:22:18;;;;;;;11.60;8.15;;;;;;;2.22;100.00;96465.78;5065976;28;20057;-61
2022/02/01 06:24:47;;;;;;;7.97;7.13;;;;;;;2.24;100.00;96458.72;5064296;28;20072;-57
2022/02/01 06:27:17;;;;;;;10.13;8.13;;;;;;;2.24;100.00;96470.91;5067062;28;20566;-59
2022/02/01 06:29:45;;;;;;;10.80;8.35;;;;;;;2.34;100.00;96458.97;5065321;28;20084;-60
2022/02/01 06:32:14;;;;;;;14.52;8.85;;;;;;;2.29;100.00;96463.66;5067285;28;20072;-60
2022/02/01 06:34:43;;;;;;;10.93;7.63;;;;;;;2.27;100.00;96455.94;5066957;28;20064;-56
2022/02/01 06:37:11;;;;;;;10.38;6.78;;;;;;;2.26;100.00;96448.22;5053478;28;20076;-58
2022/02/01 06:39:40;;;;;;;8.15;6.68;;;;;;;2.24;100.00;96460.50;5048893;28;20522;-59
2022/02/01 06:42:09;;;;;;;7.45;6.30;;;;;;;2.28;100.00;96460.22;5044393;28;20061;-58
2022/02/01 06:44:40;;;;;;;8.15;6.53;;;;;;;2.24;100.00;96468.31;5044000;28;20069;-59
2022/02/01 06:47:09;;;;;;;11.50;7.35;;;;;;;2.38;100.00;96474.34;5045445;28;20435;-59
2022/02/01 06:49:37;;;;;;;12.32;7.78;;;;;;;2.37;100.00;96466.59;5041500;28;20076;-58
2022/02/01 06:52:06;;;;;;;8.98;7.50;;;;;;;2.34;100.00;96466.78;5037799;28;20080;-60
2022/02/01 06:54:36;;;;;;;10.27;8.18;;;;;;;2.37;100.00;96462.25;5056151;28;20091;-60
2022/02/01 06:57:23;;;;;;;11.35;7.95;;;;;;;2.38;100.00;96476.94;5056591;28;20073;-59
2022/02/01 06:59:53;;;;;;;8.73;7.75;;;;;;;2.33;100.00;96480.75;5044469;28;20080;-59
2022/02/01 07:02:22;;;;;;;9.77;7.57;;;;;;;2.18;100.00;96495.53;5052335;28;21999;-57
2022/02/01 07:04:51;;;;;;;14.60;9.98;;;;;;;2.35;100.00;96500.53;5044517;28;20072;-61
2022/02/01 07:07:19;;;;;;;12.98;10.20;;;;;;;2.22;100.00;96494.41;5043646;28;20057;-59
2022/02/01 07:09:48;;;;;;;11.38;9.02;;;;;;;2.07;100.00;96495.34;5043707;28;20075;-58
2022/02/01 07:12:16;;;;;;;11.13;8.13;;;;;;;2.16;100.00;96505.16;5043152;28;20063;-60
2022/02/01 07:14:45;;;;;;;13.23;9.45;;;;;;;2.23;100.00;96487.44;5045245;28;20519;-60
2022/02/01 07:17:14;;;;;;;13.05;9.50;;;;;;;2.28;100.00;96488.84;5046339;28;20084;-58
2022/02/01 07:19:43;;;;;;;9.98;8.05;;;;;;;2.25;100.00;96498.59;5038288;28;20071;-61
2022/02/01 07:22:11;;;;;;;9.40;7.75;;;;;;;2.28;100.00;96496.63;5045846;28;20066;-61
2022/02/01 07:24:53;;;;;;;10.50;7.60;;;;;;;2.33;100.00;96501.56;5042501;28;20064;-59
2022/02/01 07:27:37;;;;;;;9.02;7.32;;;;;;;2.27;100.00;96513.19;5043786;28;20076;-58
2022/02/01 07:30:10;;;;;;;10.27;8.50;;;;;;;2.15;100.00;96516.50;5041121;28;20070;-55
2022/02/01 07:32:40;;;;;;;9.60;6.63;;;;;;;2.29;100.00;96518.28;5041389;28;20119;-60
2022/02/01 07:35:09;;;;;;;6.65;6.05;;;;;;;2.33;100.00;96528.41;5047843;28;20371;-57
2022/02/01 07:37:38;;;;;;;6.50;5.93;;;;;;;2.37;100.00;96535.13;5039895;28;20064;-58
2022/02/01 07:40:08;;;;;;;8.52;7.55;;;;;;;2.44;100.00;96539.94;5054827;28;20906;-54
2022/02/01 07:42:37;;;;;;;6.95;6.28;;;;;;;2.47;100.00;96542.34;5060883;28;20071;-59
2022/02/01 07:45:07;;;;;;;7.15;5.93;;;;;;;2.50;100.00;96550.81;5064611;28;21166;-59
2022/02/01 07:47:36;;;;;;;7.28;6.05;;;;;;;2.50;100.00;96550.81;5065116;28;20072;-60
2022/02/01 07:50:08;;;;;;;6.53;5.93;;;;;;;2.54;100.00;96541.06;5064001;28;20608;-58
2022/02/01 07:52:37;;;;;;;8.23;7.40;;;;;;;2.57;100.00;96536.50;5062079;28;20087;-60
2022/02/01 07:55:06;;;;;;;8.20;7.05;;;;;;;2.41;100.00;96530.56;5064001;28;20471;-59
2022/02/01 07:57:35;;;;;;;7.35;6.22;;;;;;;2.45;100.00;96533.81;5065245;28;20076;-59
2022/02/01 08:00:04;;;;;;;9.35;6.25;;;;;;;2.38;100.00;96554.16;5064279;28;20541;-57
2022/02/01 08:02:34;;;;;;;7.13;5.93;;;;;;;2.28;100.00;96548.69;5066686;28;20072;-54
2022/02/01 08:05:20;;;;;;;6.85;6.15;;;;;;;2.25;100.00;96548.84;5058905;28;20142;-60
2022/02/01 08:07:49;;;;;;;8.13;5.30;;;;;;;2.22;100.00;96562.03;5063570;28;20071;-59
2022/02/01 08:10:18;;;;;;;7.05;5.38;;;;;;;2.29;100.00;96557.31;5063733;28;20068;-58
2022/02/01 08:13:31;;;;;;;6.30;5.70;;;;;;;2.36;100.00;96559.44;5062632;28;20064;-58
2022/02/01 08:18:35;;;;;;;11.80;6.15;;;;;;;2.31;100.00;96552.88;5058038;28;20060;-57
2022/02/01 08:21:07;;;;;;;17.63;6.78;;;;;;;2.46;100.00;96554.53;5044079;28;20069;-61
2022/02/01 08:23:35;;;;;;;6.97;5.32;;;;;;;2.45;100.00;96549.44;5042859;28;20088;-61
2022/02/01 08:26:04;;;;;;;9.68;5.63;;;;;;;2.44;100.00;96568.56;5044444;28;20087;-60
2022/02/01 08:28:32;;;;;;;7.85;5.35;;;;;;;2.35;100.00;96568.19;5037345;28;20081;-56
2022/02/01 08:31:01;;;;;;;7.97;5.70;;;;;;;2.42;100.00;96573.88;5041748;28;20076;-57
2022/02/01 08:33:30;;;;;;;9.45;5.57;;;;;;;2.37;100.00;96566.34;5034690;28;20060;-59
2022/02/01 08:35:58;;;;;;;8.18;5.18;;;;;;;2.49;100.00;96584.75;5043568;28;20446;-59
2022/02/01 08:38:28;;;;;;;6.10;5.50;;;;;;;2.39;100.00;96584.47;5043615;28;20559;-58
2022/02/01 08:40:58;;;;;;;8.98;5.95;;;;;;;2.43;100.00;96587.72;5042518;28;20564;-59
2022/02/01 08:43:26;;;;;;;14.30;5.78;;;;;;;2.44;100.00;96599.78;5043469;28;20796;-60
2022/02/01 08:45:55;;;;;;;8.27;5.68;;;;;;;2.42;100.00;96602.50;5038911;28;20068;-61
2022/02/01 08:48:23;;;;;;;8.13;5.18;;;;;;;2.34;100.00;96612.50;5042544;28;20076;-58
2022/02/01 08:50:52;;;;;;;10.55;5.60;;;;;;;2.40;100.00;96608.72;5042001;28;20087;-59
2022/02/01 08:53:23;;;;;;;7.53;4.63;;;;;;;2.38;100.00;96606.22;5043790;28;20088;-60
2022/02/01 08:56:06;;;;;;;7.93;5.22;;;;;;;2.51;100.00;96621.91;5038389;28;20076;-60
2022/02/01 08:58:34;;;;;;;5.35;4.82;;;;;;;2.48;100.00;96617.75;5039059;28;20678;-58
2022/02/01 09:01:03;;;;;;;10.35;4.93;;;;;;;2.43;100.00;96621.56;5042227;28;20064;-61
2022/02/01 09:03:32;;;;;;;12.48;4.85;;;;;;;2.42;100.00;96628.53;5039788;28;20068;-57
2022/02/01 09:06:01;;;;;;;8.60;5.30;;;;;;;2.36;100.00;96615.88;5040137;28;20068;-58
2022/02/01 09:08:31;;;;;;;9.43;5.63;;;;;;;2.45;100.00;96619.72;5045318;28;20179;-59
2022/02/01 09:11:00;;;;;;;8.07;5.30;;;;;;;2.40;100.00;96627.75;5042677;28;20076;-60
2022/02/01 09:13:29;;;;;;;8.93;5.30;;;;;;;2.45;100.00;96615.34;5033705;28;20484;-60
2022/02/01 09:15:57;;;;;;;10.68;5.40;;;;;;;2.44;100.00;96618.84;5042098;28;20072;-57
2022/02/01 09:18:26;;;;;;;9.43;4.70;;;;;;;2.47;100.00;96631.69;5039625;28;20068;-61
2022/02/01 09:20:54;;;;;;;8.57;4.50;;;;;;;2.51;100.00;96633.19;5041221;28;20076;-59
2022/02/01 09:23:23;;;;;;;9.48;5.60;;;;;;;2.51;100.00;96628.00;5043070;28;20073;-60
2022/02/01 09:25:52;;;;;;;11.93;5.40;;;;;;;2.58;100.00;96633.63;5040562;28;20048;-60
2022/02/01 09:28:23;;;;;;;9.30;5.45;;;;;;;2.46;100.00;96632.63;5044284;28;20546;-61
2022/02/01 09:30:54;;;;;;;7.22;4.70;;;;;;;2.57;100.00;96614.59;5055328;28;20087;-60
2022/02/01 09:33:23;;;;;;;7.53;5.05;;;;;;;2.53;100.00;96639.13;5056726;28;20087;-60
2022/02/01 09:35:51;;;;;;;8.80;4.95;;;;;;;2.79;100.00;96628.94;5043782;28;20080;-58
2022/02/01 09:38:19;;;;;;;13.25;5.18;;;;;;;2.72;100.00;96633.69;5048035;28;20087;-61
2022/02/01 09:40:48;;;;;;;8.23;5.20;;;;;;;2.63;100.00;96643.81;5042120;28;20083;-60
2022/02/01 09:43:17;;;;;;;8.13;5.38;;;;;;;2.73;100.00;96629.31;5039956;28;20075;-61
2022/02/01 09:45:47;;;;;;;10.50;5.65;;;;;;;2.61;100.00;96636.06;5037337;28;20471;-60
2022/02/01 09:48:36;;;;;;;13.70;5.25;;;;;;;2.74;100.00;96634.41;5042895;28;20072;-58
2022/02/01 09:51:08;;;;;;;4.88;4.35;;;;;;;2.74;100.00;96637.00;5040475;28;20068;-58
2022/02/01 09:53:36;;;;;;;7.82;4.55;;;;;;;2.68;100.00;96639.97;5038523;28;20073;-61
2022/02/01 09:56:05;;;;;;;9.05;4.85;;;;;;;2.75;100.00;96654.34;5040999;28;20068;-58
2022/02/01 09:58:35;;;;;;;11.80;5.18;;;;;;;2.87;100.00;96655.34;5059828;28;20091;-59
2022/02/01 10:01:17;;;;;;;11.68;5.30;;;;;;;2.70;100.00;96655.53;5060653;28;20444;-61
2022/02/01 10:03:46;;;;;;;10.88;5.15;;;;;;;2.68;100.00;96650.38;5063181;28;20447;-59
2022/02/01 10:06:35;;;;;;;4.90;4.15;;;;;;;2.73;100.00;96650.97;5051892;28;20075;-57
2022/02/01 10:09:23;;;;;;;6.93;4.28;;;;;;;2.81;100.00;96651.34;5043880;28;20107;-59
2022/02/01 10:11:52;;;;;;;11.98;5.25;;;;;;;2.61;100.00;96641.28;5041474;28;20099;-61
2022/02/01 10:14:25;;;;;;;6.80;5.03;;;;;;;2.68;100.00;96636.53;5041477;28;20072;-58
2022/02/01 10:16:58;;;;;;;9.88;4.97;;;;;;;2.94;100.00;96642.78;5064714;28;20076;-56
2022/02/01 10:19:27;;;;;;;5.47;4.43;;;;;;;2.82;100.00;96640.00;5049542;28;20076;-60
2022/02/01 10:21:56;;;;;;;8.15;4.50;;;;;;;2.83;100.00;96638.25;5057898;28;20526;-59
2022/02/01 10:24:29;;;;;;;6.53;4.25;;;;;;;2.73;100.00;96640.56;5056796;28;20111;-60
2022/02/01 10:27:09;;;;;;;8.18;4.47;;;;;;;2.84;100.00;96635.53;5046637;28;20061;-60
2022/02/01 10:29:39;;;;;;;5.53;3.92;;;;;;;3.11;100.00;96628.75;5046205;28;20099;-60
2022/02/01 10:32:18;;;;;;;7.85;4.10;;;;;;;3.03;100.00;96637.03;5045383;28;20495;-57
2022/02/01 10:34:48;;;;;;;9.02;4.05;;;;;;;3.25;100.00;96645.19;5043208;28;20067;-60
2022/02/01 10:37:37;;;;;;;9.05;4.03;;;;;;;3.02;100.00;96641.38;5039551;28;20072;-59
2022/02/01 10:40:07;;;;;;;9.95;4.45;;;;;;;3.06;100.00;96639.41;5037031;28;20069;-58
2022/02/01 10:42:35;;;;;;;5.60;3.90;;;;;;;2.99;100.00;96636.34;5045054;28;20664;-59
2022/02/01 10:45:04;;;;;;;5.03;3.97;;;;;;;3.01;100.00;96624.09;5043338;28;20507;-58
2022/02/01 10:47:35;;;;;;;9.68;4.57;;;;;;;2.99;100.00;96606.88;5047713;28;20130;-61
2022/02/01 10:50:07;;;;;;;7.47;4.55;;;;;;;2.87;100.00;96620.66;5044165;28;21228;-61
2022/02/01 10:52:36;;;;;;;8.05;4.50;;;;;;;3.03;100.00;96605.78;5050969;28;20068;-61
2022/02/01 10:55:07;;;;;;;5.88;3.90;;;;;;;3.19;100.00;96616.06;5045454;28;20061;-61
2022/02/01 10:57:36;;;;;;;10.73;3.95;;;;;;;3.11;100.00;96621.75;5046435;28;20071;-61
2022/02/01 11:00:07;;;;;;;11.07;4.88;;;;;;;3.12;100.00;96610.38;5045777;28;20527;-60
2022/02/01 11:02:42;;;;;;;7.18;4.05;;;;;;;3.44;100.00;96625.78;5045056;28;20531;-56
2022/02/01 11:05:12;;;;;;;8.63;4.18;;;;;;;3.19;100.00;96603.03;5043283;28;20128;-61
2022/02/01 11:08:00;;;;;;;12.73;4.50;;;;;;;3.54;100.00;96596.44;5044906;28;21568;-60
2022/02/01 11:10:29;;;;;;;5.53;4.13;;;;;;;3.35;100.00;96611.56;5043430;28;20071;-59
2022/02/01 11:13:05;;;;;;;6.25;4.40;;;;;;;3.43;100.00;96609.31;5038436;28;20076;-59
2022/02/01 11:15:33;;;;;;;7.15;4.43;;;;;;;3.33;100.00;96623.84;5046246;28;20075;-61
2022/02/01 11:18:15;;;;;;;8.43;4.25;;;;;;;3.35;100.00;96615.94;5045190;28;20515;-58
2022/02/01 11:20:47;;;;;;;11.57;4.10;;;;;;;3.29;100.00;96580.69;5043728;28;20139;-61
2022/02/01 11:23:20;;;;;;;9.82;4.00;;;;;;;3.52;100.00;96597.47;5043988;28;20697;-58
2022/02/01 11:25:54;;;;;;;6.93;4.20;;;;;;;3.81;100.00;96599.03;5044109;28;20053;-60
2022/02/01 11:28:41;;;;;;;4.53;4.05;;;;;;;3.64;100.00;96593.22;5044068;28;20064;-59
2022/02/01 11:31:09;;;;;;;15.73;4.30;;;;;;;3.92;100.00;96577.47;5044633;28;20067;-59
2022/02/01 11:33:42;;;;;;;4.13;3.83;;;;;;;3.57;100.00;96564.09;5043752;28;20079;-61
2022/02/01 11:36:12;;;;;;;7.07;4.20;;;;;;;3.51;100.00;96564.50;5042914;28;20067;-59
2022/02/01 11:38:50;;;;;;;8.18;3.83;;;;;;;3.46;100.00;96571.78;5044369;28;20065;-59
2022/02/01 11:41:30;;;;;;;9.27;3.55;;;;;;;3.47;100.00;96550.81;5042081;28;20080;-59
2022/02/01 11:44:08;;;;;;;7.38;3.45;;;;;;;3.58;100.00;96560.59;5042018;28;20110;-60
2022/02/01 11:46:37;;;;;;;7.70;3.75;;;;;;;3.29;100.00;96558.06;5042836;28;20072;-59
2022/02/01 11:49:07;;;;;;;4.25;3.60;;;;;;;3.35;100.00;96542.97;5041340;28;20077;-56
2022/02/01 11:52:06;;;;;;;5.65;3.50;;;;;;;3.32;100.00;96537.00;5042002;28;20060;-60
2022/02/01 11:54:36;;;;;;;4.80;3.80;;;;;;;3.45;100.00;96531.84;5052235;28;20075;-60
2022/02/01 11:57:13;;;;;;;4.22;3.58;;;;;;;3.32;100.00;96518.75;5063247;28;20060;-59
2022/02/01 12:00:01;;;;;;;4.97;3.70;;;;;;;3.60;100.00;96521.38;5063206;28;20091;-58
2022/02/01 12:02:35;;;;;;;7.00;3.85;;;;;;;3.70;100.00;96514.59;5065122;28;20076;-60
2022/02/01 12:05:11;;;;;;;5.80;4.05;;;;;;;3.67;100.00;96502.59;5064071;28;20068;-61
2022/02/01 12:07:44;;;;;;;8.13;4.10;;;;;;;3.67;100.00;96496.56;5065051;28;20044;-58
2022/02/01 12:10:14;;;;;;;5.45;3.90;;;;;;;3.64;100.00;96481.94;5050897;28;20099;-60
2022/02/01 12:12:42;;;;;;;8.40;4.20;;;;;;;3.94;100.00;96480.84;5043738;28;20072;-57
2022/02/01 12:15:11;;;;;;;5.57;3.80;;;;;;;3.77;100.00;96474.97;5043484;28;20076;-60
2022/02/01 12:17:45;;;;;;;6.35;4.13;;;;;;;3.56;100.00;96455.53;5040764;28;20080;-60
2022/02/01 12:20:17;;;;;;;4.43;4.13;;;;;;;3.69;100.00;96473.84;5045530;28;20737;-56
2022/02/01 12:23:00;;;;;;;5.60;3.97;;;;;;;3.47;100.00;96477.00;5044191;28;20053;-59
2022/02/01 12:25:29;;;;;;;6.22;4.35;;;;;;;3.60;100.00;96459.63;5038015;28;20065;-58
2022/02/01 12:27:57;;;;;;;5.53;3.80;;;;;;;3.61;100.00;96463.06;5044054;28;20076;-60
2022/02/01 12:30:26;;;;;;;4.68;3.40;;;;;;;3.53;100.00;96451.38;5044113;28;20637;-61
2022/02/01 12:32:57;;;;;;;5.85;3.95;;;;;;;3.30;100.00;96450.28;5042156;28;20080;-61
2022/02/01 12:35:35;;;;;;;6.70;3.70;;;;;;;3.31;100.00;96451.94;5037847;28;20069;-60
2022/02/01 12:38:08;;;;;;;8.90;4.03;;;;;;;3.24;100.00;96439.44;5042991;28;21765;-58
2022/02/01 12:40:37;;;;;;;12.05;4.53;;;;;;;3.21;100.00;96450.88;5042264;28;20076;-60
2022/02/01 12:43:11;;;;;;;5.90;3.90;;;;;;;3.36;100.00;96445.59;5044169;28;20077;-59
2022/02/01 12:45:57;;;;;;;6.43;3.80;;;;;;;3.27;100.00;96440.06;5044196;28;20068;-56
2022/02/01 12:48:26;;;;;;;7.07;4.20;;;;;;;3.45;100.00;96456.25;5043330;28;20060;-60
2022/02/01 12:50:58;;;;;;;7.50;5.00;;;;;;;3.42;100.00;96448.63;5039218;28;20087;-56
2022/02/01 12:53:26;;;;;;;4.72;3.65;;;;;;;3.31;100.00;96446.75;5046640;28;20088;-58